Time;durP1;ratioP1;P1;durP2;ratioP2;P2;SDS_P1;SDS_P2;PMS_P1;PMS_P2;Temp;Humidity;BMP_temperature;BMP_pressure;BME280_temperature;BME280_humidity;BME280_pressure;Samples;Min_cycle;Max_cycle;Signal;HPM_P1;HPM_P2
2022/04/06 00:00:32;;;;;;;22.15;9.38;;;;;;;7.97;100.00;100329.72;5050051;28;20393;-85
2022/04/06 00:02:58;;;;;;;21.73;9.80;;;;;;;7.97;100.00;100333.22;5051315;28;20326;-85
2022/04/06 00:05:23;;;;;;;21.60;10.13;;;;;;;7.97;100.00;100333.22;5051064;28;20029;-85
2022/04/06 00:07:49;;;;;;;25.58;9.15;;;;;;;7.97;100.00;100333.22;5046073;28;20028;-86
2022/04/06 00:10:15;;;;;;;24.00;10.15;;;;;;;7.95;99.84;100329.81;5052039;28;20032;-86
2022/04/06 00:12:40;;;;;;;24.83;9.27;;;;;;;8.01;99.61;100325.16;5052385;28;20382;-85
2022/04/06 00:15:09;;;;;;;21.25;9.32;;;;;;;7.96;100.00;100318.28;5051163;28;20098;-85
2022/04/06 00:17:34;;;;;;;23.85;8.93;;;;;;;7.94;100.00;100320.16;5052265;28;20032;-84
2022/04/06 00:20:00;;;;;;;21.58;9.23;;;;;;;7.92;100.00;100314.06;5052072;28;20390;-85
2022/04/06 00:22:25;;;;;;;22.20;9.32;;;;;;;7.93;100.00;100306.97;5052538;28;20435;-85
2022/04/06 00:24:51;;;;;;;19.45;8.73;;;;;;;7.94;99.66;100308.66;5048140;28;20138;-85
2022/04/06 00:27:17;;;;;;;21.33;9.52;;;;;;;7.88;99.81;100307.19;5047730;28;20021;-85
2022/04/06 00:29:42;;;;;;;19.45;8.57;;;;;;;7.83;99.77;100303.06;5044557;28;20109;-86
2022/04/06 00:32:08;;;;;;;25.80;8.45;;;;;;;7.91;99.53;100314.13;5050015;28;20075;-86
2022/04/06 00:37:17;;;;;;;22.67;8.98;;;;;;;7.91;99.27;100316.78;5042896;28;20114;-87
2022/04/06 00:39:43;;;;;;;22.42;8.70;;;;;;;7.88;99.59;100301.88;5052445;28;20013;-86
2022/04/06 00:42:08;;;;;;;24.60;8.07;;;;;;;7.88;99.50;100304.53;5052112;28;20033;-86
2022/04/06 00:44:34;;;;;;;24.40;7.88;;;;;;;7.89;98.94;100305.41;5049736;28;20025;-86
2022/04/06 00:47:02;;;;;;;19.55;8.48;;;;;;;7.86;99.57;100300.22;5049926;28;20124;-87
2022/04/06 00:49:28;;;;;;;23.20;8.85;;;;;;;7.84;98.83;100300.31;5048994;28;20098;-86
2022/04/06 00:51:54;;;;;;;22.83;7.07;;;;;;;7.82;98.91;100296.03;5053002;28;20036;-86
2022/04/06 00:54:22;;;;;;;22.20;7.70;;;;;;;7.81;99.43;100294.31;5053335;28;20033;-86
2022/04/06 00:56:48;;;;;;;19.55;7.65;;;;;;;7.77;99.18;100282.13;5046022;28;20055;-86
2022/04/06 00:59:16;;;;;;;22.58;7.70;;;;;;;7.80;99.38;100296.09;5052189;28;20035;-86
2022/04/06 01:01:43;;;;;;;18.30;7.15;;;;;;;7.78;99.39;100295.34;5052224;28;20035;-86
2022/04/06 01:04:08;;;;;;;20.27;6.55;;;;;;;7.81;98.30;100295.16;5049535;28;20539;-86
2022/04/06 01:06:33;;;;;;;18.13;6.88;;;;;;;7.85;98.02;100288.78;5048828;28;20017;-86
2022/04/06 01:08:59;;;;;;;22.15;7.00;;;;;;;7.82;98.08;100286.31;5051133;28;20413;-86
2022/04/06 01:11:24;;;;;;;22.45;7.22;;;;;;;7.84;98.12;100287.06;5031051;28;20382;-86
2022/04/06 01:13:51;;;;;;;24.73;7.72;;;;;;;7.83;98.22;100289.81;5050303;28;20295;-86
2022/04/06 01:16:17;;;;;;;20.27;6.97;;;;;;;7.79;97.71;100269.69;5051161;28;20032;-88
2022/04/06 01:18:42;;;;;;;16.17;6.97;;;;;;;7.75;97.67;100274.28;5051160;28;20315;-86
2022/04/06 01:21:08;;;;;;;20.17;6.70;;;;;;;7.82;97.90;100277.50;5051340;28;20043;-86
2022/04/06 01:23:33;;;;;;;18.45;6.90;;;;;;;7.80;97.93;100285.50;5051058;28;20031;-86
2022/04/06 01:25:58;;;;;;;18.10;6.47;;;;;;;7.77;97.54;100274.19;5048125;28;20024;-86
2022/04/06 01:28:24;;;;;;;21.25;6.90;;;;;;;7.80;96.78;100271.41;5050780;28;20083;-86
2022/04/06 01:30:49;;;;;;;19.98;7.15;;;;;;;7.80;97.32;100274.03;5049672;28;20082;-86
2022/04/06 01:33:15;;;;;;;22.20;6.20;;;;;;;7.76;97.06;100275.13;5050109;28;20036;-86
2022/04/06 01:35:42;;;;;;;18.63;6.25;;;;;;;7.74;97.38;100265.47;5043477;28;20021;-86
2022/04/06 01:38:08;;;;;;;17.45;6.85;;;;;;;7.73;97.37;100265.53;5049299;28;20044;-86
2022/04/06 01:40:33;;;;;;;21.27;6.53;;;;;;;7.76;97.13;100270.69;5049616;28;20037;-86
2022/04/06 01:42:59;;;;;;;18.50;6.45;;;;;;;7.77;97.23;100269.75;5047833;28;20112;-85
2022/04/06 01:45:24;;;;;;;24.75;6.32;;;;;;;7.71;97.70;100254.16;5048479;28;20090;-85
2022/04/06 01:47:49;;;;;;;15.23;5.93;;;;;;;7.72;97.45;100261.16;5049878;28;20746;-85
2022/04/06 01:53:15;;;;;;;21.75;6.68;;;;;;;7.72;96.97;100262.03;5008875;28;20494;-85
2022/04/06 01:55:41;;;;;;;22.10;6.00;;;;;;;7.72;96.51;100262.03;5006551;28;20172;-85
2022/04/06 01:58:07;;;;;;;16.75;6.60;;;;;;;7.70;96.56;100257.75;5014300;28;20021;-86
2022/04/06 02:00:32;;;;;;;15.93;6.00;;;;;;;7.71;96.15;100264.75;5014911;28;20088;-86
2022/04/06 02:02:57;;;;;;;21.67;6.35;;;;;;;7.70;96.63;100266.56;5002679;28;20045;-85
2022/04/06 02:05:23;;;;;;;16.42;6.32;;;;;;;7.71;95.77;100260.31;4991671;28;20030;-85
2022/04/06 02:07:50;;;;;;;17.05;5.90;;;;;;;7.68;95.86;100259.59;5013721;28;20185;-85
2022/04/06 02:10:16;;;;;;;15.15;5.45;;;;;;;7.71;96.04;100256.81;5008475;28;20593;-85
2022/04/06 02:12:42;;;;;;;14.98;5.97;;;;;;;7.65;95.82;100250.03;5008428;28;20034;-85
2022/04/06 02:15:13;;;;;;;15.93;6.15;;;;;;;7.64;95.18;100243.00;5015984;28;20025;-85
2022/04/06 02:17:39;;;;;;;16.63;5.78;;;;;;;7.67;95.68;100256.09;5007560;28;20187;-85
2022/04/06 02:20:05;;;;;;;15.52;5.85;;;;;;;7.69;94.69;100254.25;5012986;28;20038;-85
2022/04/06 02:22:30;;;;;;;15.27;5.47;;;;;;;7.70;94.56;100242.72;5014098;28;20041;-85
2022/04/06 02:24:56;;;;;;;12.55;5.35;;;;;;;7.66;94.81;100240.28;5007370;28;20326;-86
2022/04/06 02:27:21;;;;;;;17.88;5.15;;;;;;;7.62;94.25;100241.38;5031849;28;20064;-85
2022/04/06 02:29:46;;;;;;;16.73;5.05;;;;;;;7.63;94.56;100246.59;5048580;28;21189;-85
2022/04/06 02:32:12;;;;;;;14.38;5.10;;;;;;;7.57;94.30;100235.44;5047640;28;20045;-86
2022/04/06 02:34:37;;;;;;;16.63;5.35;;;;;;;7.57;94.02;100224.84;5045944;28;20385;-86
2022/04/06 02:37:03;;;;;;;16.20;5.63;;;;;;;7.54;94.57;100231.13;5044600;28;20494;-86
2022/04/06 02:39:29;;;;;;;17.92;5.13;;;;;;;7.58;93.94;100234.50;5045966;28;20043;-86
2022/04/06 02:41:54;;;;;;;17.52;5.40;;;;;;;7.53;95.26;100233.88;5047207;28;20028;-86
2022/04/06 02:44:19;;;;;;;21.15;5.53;;;;;;;7.51;93.26;100236.56;5043654;28;20033;-86
2022/04/06 02:46:46;;;;;;;14.05;5.22;;;;;;;7.56;93.08;100229.25;5045166;28;20028;-86
2022/04/06 02:49:12;;;;;;;15.98;5.75;;;;;;;7.53;93.89;100226.78;5048379;28;20021;-86
2022/04/06 02:51:38;;;;;;;18.40;5.90;;;;;;;7.51;93.73;100225.13;5048226;28;20424;-86
2022/04/06 02:54:03;;;;;;;14.95;5.93;;;;;;;7.47;93.25;100217.31;5047101;28;20490;-87
2022/04/06 02:56:29;;;;;;;17.05;5.28;;;;;;;7.46;92.77;100218.25;5048323;28;20412;-86
2022/04/06 02:58:54;;;;;;;23.25;5.82;;;;;;;7.48;93.46;100221.72;5047241;28;20029;-86
2022/04/06 03:01:21;;;;;;;10.75;4.72;;;;;;;7.47;92.71;100227.91;5047531;28;20087;-86
2022/04/06 03:03:46;;;;;;;13.98;4.55;;;;;;;7.40;92.73;100213.28;5044267;28;20040;-86
2022/04/06 03:06:11;;;;;;;20.02;4.85;;;;;;;7.36;92.80;100216.16;5044802;28;20029;-86
2022/04/06 03:08:36;;;;;;;10.70;4.50;;;;;;;7.35;92.68;100214.41;5048817;28;20029;-85
2022/04/06 03:11:02;;;;;;;15.48;4.72;;;;;;;7.30;92.65;100214.63;5048803;28;20086;-86
2022/04/06 03:13:27;;;;;;;12.98;4.97;;;;;;;7.29;92.85;100214.72;5049042;28;20032;-86
2022/04/06 03:15:53;;;;;;;12.57;4.18;;;;;;;7.31;92.20;100212.84;5045557;28;20021;-86
2022/04/06 03:18:18;;;;;;;15.38;4.20;;;;;;;7.22;92.64;100199.09;5045461;28;20036;-86
2022/04/06 03:20:43;;;;;;;12.88;4.63;;;;;;;7.28;92.07;100197.13;5062006;28;20029;-86
2022/04/06 03:23:08;;;;;;;15.07;4.32;;;;;;;7.28;91.60;100205.91;5047279;28;20490;-86
2022/04/06 03:25:34;;;;;;;11.52;4.18;;;;;;;7.27;90.54;100185.66;5041054;28;20074;-86
2022/04/06 03:27:59;;;;;;;17.88;5.57;;;;;;;7.26;91.60;100194.53;5039784;28;20064;-86
2022/04/06 03:30:25;;;;;;;10.52;3.97;;;;;;;7.23;92.04;100186.72;5047240;28;20056;-87
2022/04/06 03:32:50;;;;;;;17.13;4.72;;;;;;;7.24;91.26;100185.81;5034429;28;20106;-86
2022/04/06 03:35:16;;;;;;;13.48;4.45;;;;;;;7.30;90.68;100188.16;5047169;28;20105;-87
2022/04/06 03:37:41;;;;;;;13.95;4.28;;;;;;;7.28;90.70;100176.78;5051264;28;20127;-86
2022/04/06 03:40:07;;;;;;;8.93;3.58;;;;;;;7.31;90.60;100187.22;5050206;28;20937;-86
2022/04/06 03:42:33;;;;;;;9.65;3.50;;;;;;;7.30;89.98;100180.22;5051209;28;20474;-85
2022/04/06 03:44:59;;;;;;;16.65;4.45;;;;;;;7.33;89.95;100177.44;5050570;28;20447;-86
2022/04/06 03:47:29;;;;;;;10.40;3.75;;;;;;;7.34;90.23;100173.84;5048619;28;20263;-86
2022/04/06 03:49:55;;;;;;;12.15;4.18;;;;;;;7.35;89.83;100172.91;5052188;28;20031;-87
2022/04/06 03:52:20;;;;;;;9.75;3.67;;;;;;;7.31;90.08;100165.19;5053730;28;20024;-87
2022/04/06 03:54:46;;;;;;;14.50;4.03;;;;;;;7.33;89.80;100169.47;5051071;28;20029;-86
2022/04/06 03:57:12;;;;;;;14.27;4.22;;;;;;;7.36;89.17;100172.00;5049175;28;20036;-87
2022/04/06 03:59:37;;;;;;;10.57;4.10;;;;;;;7.33;89.75;100165.97;5049546;28;20025;-87
2022/04/06 04:02:04;;;;;;;15.20;3.85;;;;;;;7.31;89.47;100165.19;5050589;28;20306;-85
2022/04/06 04:04:29;;;;;;;14.88;4.38;;;;;;;7.39;88.88;100173.63;5051341;28;20376;-86
2022/04/06 04:06:54;;;;;;;9.70;3.63;;;;;;;7.40;88.72;100159.47;5052738;28;20039;-87
2022/04/06 04:09:20;;;;;;;9.45;3.42;;;;;;;7.43;88.97;100164.59;5049488;28;20025;-86
2022/04/06 04:11:45;;;;;;;10.40;3.75;;;;;;;7.42;88.94;100165.53;5042909;28;20034;-87
2022/04/06 04:14:10;;;;;;;11.70;3.80;;;;;;;7.37;89.64;100157.81;5049600;28;20387;-86
2022/04/06 04:16:35;;;;;;;11.65;4.93;;;;;;;7.44;89.42;100172.47;5049577;28;20037;-86
2022/04/06 04:19:02;;;;;;;13.43;4.43;;;;;;;7.43;90.23;100168.09;5051686;28;20029;-86
2022/04/06 04:21:33;;;;;;;15.82;4.70;;;;;;;7.41;89.98;100159.38;5050106;28;20082;-87
2022/04/06 04:24:03;;;;;;;15.32;4.80;;;;;;;7.40;89.69;100149.72;5046500;28;20108;-87
2022/04/06 04:26:29;;;;;;;13.93;4.60;;;;;;;7.47;89.65;100159.06;5049613;28;20025;-87
2022/04/06 04:28:54;;;;;;;22.88;5.80;;;;;;;7.48;89.45;100152.88;5047966;28;20548;-86
2022/04/06 04:31:20;;;;;;;17.10;4.65;;;;;;;7.52;89.39;100147.41;5049807;28;20033;-86
2022/04/06 04:33:45;;;;;;;15.73;5.13;;;;;;;7.45;89.87;100142.41;5049056;28;20052;-87
2022/04/06 04:36:10;;;;;;;15.25;6.22;;;;;;;7.50;90.19;100144.84;5047548;28;20398;-87
2022/04/06 04:38:39;;;;;;;15.20;5.55;;;;;;;7.46;90.19;100144.13;5050955;28;20056;-86
2022/04/06 04:41:06;;;;;;;16.70;5.93;;;;;;;7.57;89.09;100156.84;5052570;28;20033;-86
2022/04/06 04:43:32;;;;;;;15.38;5.80;;;;;;;7.50;89.02;100136.88;5048558;28;20029;-86
2022/04/06 04:45:57;;;;;;;17.48;6.07;;;;;;;7.51;89.38;100137.75;5048841;28;20055;-86
2022/04/06 04:48:23;;;;;;;17.98;6.65;;;;;;;7.55;89.83;100150.75;5051417;28;20435;-86
2022/04/06 04:50:48;;;;;;;18.13;5.85;;;;;;;7.54;89.19;100142.91;5049371;28;20029;-86
2022/04/06 04:53:14;;;;;;;23.08;6.95;;;;;;;7.56;89.57;100147.16;5064810;28;20029;-86
2022/04/06 04:55:41;;;;;;;13.70;5.65;;;;;;;7.58;89.30;100144.47;5049169;28;20123;-86
2022/04/06 04:58:06;;;;;;;18.48;6.18;;;;;;;7.56;89.23;100135.72;5046715;28;20025;-85
2022/04/06 05:00:31;;;;;;;17.20;6.38;;;;;;;7.49;89.80;100128.09;5045560;28;20040;-86
2022/04/06 05:02:57;;;;;;;13.50;6.30;;;;;;;7.58;89.44;100132.06;5049441;28;20033;-85
2022/04/06 05:05:22;;;;;;;15.50;6.18;;;;;;;7.59;89.64;100138.22;5051119;28;20028;-85
2022/04/06 05:07:47;;;;;;;20.02;5.93;;;;;;;7.57;89.68;100126.88;5043516;28;20025;-84
2022/04/06 05:10:12;;;;;;;14.40;5.88;;;;;;;7.57;88.95;100134.81;5049354;28;20025;-84
2022/04/06 05:12:38;;;;;;;16.27;5.95;;;;;;;7.58;88.97;100141.81;5048423;28;20065;-85
2022/04/06 05:15:04;;;;;;;11.90;5.68;;;;;;;7.55;88.87;100126.91;5049458;28;20446;-86
2022/04/06 05:17:30;;;;;;;20.90;6.13;;;;;;;7.58;88.96;100141.81;5045182;28;20033;-86
2022/04/06 05:19:55;;;;;;;13.27;5.40;;;;;;;7.56;89.35;100131.28;5049650;28;20036;-85
2022/04/06 05:22:21;;;;;;;22.02;5.75;;;;;;;7.57;88.72;100135.66;5049885;28;20028;-85
2022/04/06 05:24:47;;;;;;;14.02;5.25;;;;;;;7.55;88.49;100121.63;5046946;28;20025;-86
2022/04/06 05:27:12;;;;;;;15.48;5.20;;;;;;;7.47;89.07;100102.59;5049230;28;20048;-86
2022/04/06 05:29:38;;;;;;;18.52;4.93;;;;;;;7.55;88.32;100131.34;5049288;28;20309;-85
2022/04/06 05:32:03;;;;;;;15.30;4.72;;;;;;;7.61;87.45;100121.34;5048200;28;20039;-84
2022/04/06 05:34:29;;;;;;;12.68;4.32;;;;;;;7.61;86.96;100123.97;5042790;28;20032;-86
2022/04/06 05:36:55;;;;;;;10.02;3.65;;;;;;;7.63;86.25;100119.44;5042937;28;20076;-86
2022/04/06 05:39:21;;;;;;;13.45;4.88;;;;;;;7.61;86.68;100121.34;5050713;28;20031;-85
2022/04/06 05:41:46;;;;;;;15.18;3.75;;;;;;;7.64;86.46;100121.16;5048793;28;20044;-84
2022/04/06 05:44:11;;;;;;;15.02;4.70;;;;;;;7.65;86.38;100127.31;5041113;28;20021;-85
2022/04/06 05:46:37;;;;;;;11.95;3.22;;;;;;;7.65;85.31;100112.28;5048595;28;20551;-84
2022/04/06 05:49:02;;;;;;;13.68;4.28;;;;;;;7.66;84.72;100118.44;5047683;28;20290;-84
2022/04/06 05:51:27;;;;;;;11.85;3.67;;;;;;;7.67;85.25;100120.16;5049398;28;20567;-85
2022/04/06 05:53:53;;;;;;;9.18;3.10;;;;;;;7.67;84.65;100117.50;5047147;28;20052;-84
2022/04/06 05:56:18;;;;;;;10.48;3.05;;;;;;;7.65;83.49;100108.75;5050833;28;20525;-84
2022/04/06 05:58:44;;;;;;;8.95;3.38;;;;;;;7.71;83.11;100113.78;5042750;28;20022;-84
2022/04/06 06:01:09;;;;;;;10.40;2.90;;;;;;;7.66;82.71;100103.41;5042243;28;20469;-84
2022/04/06 06:03:35;;;;;;;12.30;3.30;;;;;;;7.69;81.27;100108.56;5046623;28;20086;-84
2022/04/06 06:06:00;;;;;;;5.68;2.42;;;;;;;7.78;79.14;100112.53;5048503;28;20029;-85
2022/04/06 06:08:25;;;;;;;6.55;2.25;;;;;;;7.80;79.92;100115.09;5046884;28;20037;-87
2022/04/06 06:10:51;;;;;;;8.23;2.60;;;;;;;7.82;78.96;100115.88;5046682;28;20104;-86
2022/04/06 06:13:16;;;;;;;9.80;2.65;;;;;;;7.84;78.49;100119.31;5049904;28;20087;-86
2022/04/06 06:15:42;;;;;;;6.63;2.17;;;;;;;7.89;77.30;100114.63;5047700;28;20032;-86
2022/04/06 06:18:08;;;;;;;8.07;2.08;;;;;;;7.90;77.33;100124.28;5049871;28;20033;-86
2022/04/06 06:20:34;;;;;;;10.10;2.50;;;;;;;7.88;78.24;100119.06;5043207;28;20036;-86
2022/04/06 06:22:59;;;;;;;6.43;2.80;;;;;;;7.90;78.18;100111.03;5050375;28;20032;-85
2022/04/06 06:25:24;;;;;;;7.18;2.45;;;;;;;7.86;78.95;100131.53;5051681;28;20440;-86
2022/04/06 06:27:50;;;;;;;10.80;3.17;;;;;;;7.83;80.02;100122.91;5049377;28;20048;-86
2022/04/06 06:30:15;;;;;;;8.80;2.90;;;;;;;7.87;80.40;100132.41;5048463;28;20047;-86
2022/04/06 06:32:41;;;;;;;8.27;2.95;;;;;;;7.88;80.01;100119.06;5048277;28;20044;-87
2022/04/06 06:35:08;;;;;;;10.13;3.35;;;;;;;7.86;80.82;100120.94;5043337;28;20037;-87
2022/04/06 06:37:34;;;;;;;11.82;3.78;;;;;;;7.86;81.12;100118.31;5046704;28;20075;-87
2022/04/06 06:39:59;;;;;;;8.38;3.10;;;;;;;7.94;80.24;100112.59;5048934;28;20624;-87
2022/04/06 06:42:24;;;;;;;11.18;3.60;;;;;;;7.94;80.23;100100.22;5049548;28;20029;-86
2022/04/06 06:44:50;;;;;;;9.02;3.15;;;;;;;8.06;79.39;100105.78;5043930;28;20394;-86
2022/04/06 06:47:15;;;;;;;9.32;3.17;;;;;;;8.12;78.45;100116.94;5050102;28;20123;-87
2022/04/06 06:49:46;;;;;;;8.20;3.50;;;;;;;8.18;78.88;100110.44;5045392;28;20021;-87
2022/04/06 06:52:12;;;;;;;7.68;3.03;;;;;;;8.21;75.93;100113.81;5047771;28;20036;-86
2022/04/06 06:54:37;;;;;;;8.10;2.90;;;;;;;8.25;77.15;100114.50;5043873;28;20038;-86
2022/04/06 06:57:03;;;;;;;8.27;3.15;;;;;;;8.23;76.38;100108.41;5048623;28;20386;-86
2022/04/06 06:59:28;;;;;;;6.00;2.88;;;;;;;8.21;76.21;100115.59;5043567;28;20033;-86
2022/04/06 07:01:53;;;;;;;8.70;3.20;;;;;;;8.14;77.20;100109.75;5050407;28;20110;-85
2022/04/06 07:04:22;;;;;;;7.38;2.90;;;;;;;8.08;77.66;100110.09;5050148;28;20128;-86
2022/04/06 07:06:47;;;;;;;9.90;3.22;;;;;;;8.14;78.76;100114.19;5047699;28;20094;-85
2022/04/06 07:09:12;;;;;;;9.65;2.92;;;;;;;8.09;79.76;100097.69;5045681;28;20056;-85
2022/04/06 07:11:38;;;;;;;8.30;4.03;;;;;;;8.22;79.71;100102.25;5053489;28;20386;-85
2022/04/06 07:14:03;;;;;;;12.30;4.05;;;;;;;8.33;79.72;100088.44;5056850;28;20033;-85
2022/04/06 07:16:29;;;;;;;9.88;3.88;;;;;;;8.48;79.65;100098.28;5071571;28;20024;-85
2022/04/06 07:18:54;;;;;;;14.15;4.57;;;;;;;8.46;79.45;100083.38;5065904;28;20108;-85
2022/04/06 07:21:20;;;;;;;13.02;4.10;;;;;;;8.48;79.93;100090.31;5053114;28;20063;-86
2022/04/06 07:23:45;;;;;;;11.68;3.90;;;;;;;8.42;79.79;100087.97;5050896;28;20090;-84
2022/04/06 07:26:13;;;;;;;7.93;3.92;;;;;;;8.32;80.48;100089.38;5046737;28;20580;-85
2022/04/06 07:28:38;;;;;;;9.88;4.40;;;;;;;8.28;81.21;100084.31;5047943;28;20036;-85
2022/04/06 07:31:03;;;;;;;10.68;3.85;;;;;;;8.21;80.82;100081.13;5045416;28;20033;-84
2022/04/06 07:33:29;;;;;;;10.73;4.38;;;;;;;8.19;81.91;100080.34;5040975;28;20030;-84
2022/04/06 07:35:54;;;;;;;11.57;4.35;;;;;;;8.18;82.03;100079.50;5041461;28;20381;-84
2022/04/06 07:38:19;;;;;;;7.65;3.88;;;;;;;8.20;81.32;100084.75;5047454;28;20033;-85
2022/04/06 07:40:46;;;;;;;9.88;4.38;;;;;;;8.14;81.64;100058.53;5046656;28;20090;-83
2022/04/06 07:43:12;;;;;;;7.45;4.05;;;;;;;8.17;80.69;100061.03;5049148;28;20028;-84
2022/04/06 07:45:37;;;;;;;9.07;4.07;;;;;;;8.17;80.60;100061.03;5038458;28;20034;-84
2022/04/06 07:48:04;;;;;;;9.55;3.63;;;;;;;8.22;81.52;100058.97;5041015;28;20037;-85
2022/04/06 07:50:29;;;;;;;8.00;3.92;;;;;;;8.21;80.79;100079.34;5048861;28;20167;-84
2022/04/06 07:52:54;;;;;;;9.48;3.90;;;;;;;8.21;80.63;100066.09;5044625;28;20127;-82
2022/04/06 07:55:20;;;;;;;11.90;4.00;;;;;;;8.21;81.04;100057.28;5046426;28;20017;-84
2022/04/06 07:57:45;;;;;;;11.07;4.05;;;;;;;8.22;80.97;100057.19;5063901;28;20129;-84
2022/04/06 08:00:16;;;;;;;8.45;3.85;;;;;;;8.32;80.37;100057.56;5045692;28;20294;-85
2022/04/06 08:02:43;;;;;;;8.68;3.80;;;;;;;8.34;80.89;100058.31;5049764;28;20432;-85
2022/04/06 08:05:09;;;;;;;10.55;3.80;;;;;;;8.45;80.20;100049.84;5043982;28;20099;-86
2022/04/06 08:07:39;;;;;;;8.10;3.28;;;;;;;8.56;79.63;100042.13;5046634;28;20554;-84
2022/04/06 08:10:09;;;;;;;11.38;3.50;;;;;;;8.70;79.26;100038.72;5048662;28;20037;-84
2022/04/06 08:12:35;;;;;;;6.40;3.13;;;;;;;8.94;77.98;100047.94;5047073;28;20452;-86
2022/04/06 08:15:01;;;;;;;9.45;3.40;;;;;;;8.94;77.44;100053.25;5064726;28;20374;-83
2022/04/06 08:17:30;;;;;;;10.15;3.15;;;;;;;8.91;77.25;100058.75;5052660;28;20025;-83
2022/04/06 08:19:55;;;;;;;11.10;3.35;;;;;;;8.84;77.21;100052.06;5050419;28;20013;-84
2022/04/06 08:22:20;;;;;;;10.80;4.50;;;;;;;8.72;77.84;100048.28;5044740;28;20102;-84
2022/04/06 08:24:46;;;;;;;10.68;3.33;;;;;;;8.79;77.80;100051.47;5056990;28;20112;-84
2022/04/06 08:27:11;;;;;;;10.07;3.25;;;;;;;8.78;77.61;100056.84;5045487;28;20478;-84
2022/04/06 08:29:36;;;;;;;8.35;3.67;;;;;;;8.74;77.72;100058.84;5045863;28;20032;-84
2022/04/06 08:32:02;;;;;;;7.05;2.78;;;;;;;8.70;77.88;100052.00;5048076;28;20056;-84
2022/04/06 08:34:27;;;;;;;10.65;3.40;;;;;;;8.68;78.59;100061.81;5061357;28;20477;-85
2022/04/06 08:36:52;;;;;;;8.68;3.20;;;;;;;8.63;78.48;100048.81;5048787;28;20031;-85
2022/04/06 08:39:18;;;;;;;8.90;3.40;;;;;;;8.66;78.39;100055.75;5047900;28;20090;-84
2022/04/06 08:41:43;;;;;;;10.18;3.55;;;;;;;8.62;78.90;100052.41;5047153;28;20218;-84
2022/04/06 08:44:09;;;;;;;7.43;3.17;;;;;;;8.57;78.48;100051.81;5047401;28;20036;-84
2022/04/06 08:46:36;;;;;;;15.65;3.83;;;;;;;8.56;78.34;100046.56;5035196;28;20662;-85
2022/04/06 08:49:02;;;;;;;8.93;3.53;;;;;;;8.54;78.84;100049.31;5049970;28;20013;-84
2022/04/06 08:51:28;;;;;;;7.78;3.20;;;;;;;8.55;79.14;100055.47;5044096;28;20033;-85
2022/04/06 08:53:54;;;;;;;8.10;3.25;;;;;;;8.54;78.66;100061.72;5048035;28;20036;-85
2022/04/06 08:56:21;;;;;;;8.50;4.45;;;;;;;8.50;78.33;100054.88;5044918;28;20376;-84
2022/04/06 08:58:46;;;;;;;10.90;3.72;;;;;;;8.45;79.23;100050.69;5048809;28;20440;-84
2022/04/06 09:01:12;;;;;;;6.65;3.60;;;;;;;8.41;78.54;100049.16;5047199;28;20025;-85
2022/04/06 09:03:37;;;;;;;6.80;3.25;;;;;;;8.45;79.43;100052.50;5041254;28;20038;-85
2022/04/06 09:06:11;;;;;;;9.75;3.42;;;;;;;8.48;79.54;100045.22;5051306;28;20025;-86
2022/04/06 09:08:39;;;;;;;;;;;;;;;8.58;79.39;100052.66;5058752;28;20023;-86
2022/04/06 09:11:08;;;;;;;9.00;3.15;;;;;;;8.63;78.92;100043.50;5036374;28;20305;-85
2022/04/06 09:13:34;;;;;;;10.48;3.53;;;;;;;8.66;78.54;100034.53;5050071;28;20120;-86
2022/04/06 09:16:00;;;;;;;6.55;3.35;;;;;;;8.79;78.56;100043.50;5049144;28;20108;-87
2022/04/06 09:18:46;;;;;;;11.80;3.80;;;;;;;8.78;78.25;100031.19;5046878;28;20040;-85
2022/04/06 09:21:15;;;;;;;10.55;3.80;;;;;;;8.81;78.59;100041.63;5028058;28;20168;-88
2022/04/06 09:23:40;;;;;;;19.90;3.42;;;;;;;8.76;78.43;100029.56;5047777;28;20021;-86
2022/04/06 09:26:09;;;;;;;9.07;3.10;;;;;;;8.81;78.57;100038.97;5049587;28;20047;-88
2022/04/06 09:28:40;;;;;;;9.65;3.42;;;;;;;8.85;78.54;100037.00;5041078;28;20032;-86
2022/04/06 09:31:06;;;;;;;7.47;3.42;;;;;;;8.87;78.62;100057.22;5034023;28;20051;-86
2022/04/06 09:33:31;;;;;;;6.40;3.25;;;;;;;8.93;78.43;100045.38;5045209;28;20005;-86
2022/04/06 09:35:58;;;;;;;8.93;3.17;;;;;;;8.97;78.94;100039.81;5047893;28;20141;-88
2022/04/06 09:38:27;;;;;;;9.20;3.22;;;;;;;8.97;77.50;100039.81;5053754;28;20363;-84
2022/04/06 09:41:14;;;;;;;12.77;3.45;;;;;;;9.07;78.23;100031.31;5048335;28;20152;-86
2022/04/06 09:43:39;;;;;;;7.72;3.35;;;;;;;9.07;77.48;100034.84;5043408;28;20047;-85
2022/04/06 09:49:09;;;;;;;10.75;3.78;;;;;;;8.78;79.54;100036.50;5043713;28;20048;-88
2022/04/06 09:51:39;;;;;;;5.97;3.08;;;;;;;8.68;80.32;100035.28;5063546;28;20370;-83
2022/04/06 09:54:07;;;;;;;7.43;3.17;;;;;;;8.66;79.42;100015.97;5047596;28;20537;-87
2022/04/06 09:56:34;;;;;;;8.07;3.58;;;;;;;8.90;79.33;100029.63;5048733;28;20029;-88
2022/04/06 09:59:01;;;;;;;6.47;3.33;;;;;;;9.01;78.06;100031.69;5049393;28;20750;-87
2022/04/06 10:01:31;;;;;;;8.20;3.45;;;;;;;9.03;77.75;100035.09;5047703;28;20036;-86
2022/04/06 10:04:01;;;;;;;6.72;3.13;;;;;;;8.97;78.11;100031.84;5047986;28;20041;-87
2022/04/06 10:06:26;;;;;;;8.02;3.38;;;;;;;8.94;78.46;100026.69;5050084;28;20029;-86
2022/04/06 10:08:53;;;;;;;8.45;3.47;;;;;;;8.97;79.26;100017.72;5052884;28;20021;-89
2022/04/06 10:11:19;;;;;;;6.25;3.00;;;;;;;8.94;79.64;100031.16;5046363;28;20921;-87
2022/04/06 10:13:46;;;;;;;9.25;3.97;;;;;;;8.92;79.83;100020.63;5049333;28;20079;-89
2022/04/06 10:16:12;;;;;;;9.77;3.83;;;;;;;8.97;79.69;100020.38;5046391;28;20041;-89
2022/04/06 10:18:38;;;;;;;11.60;3.70;;;;;;;9.06;78.90;100017.19;5044507;28;20429;-90
2022/04/06 10:21:27;;;;;;;7.53;3.90;;;;;;;9.12;78.24;99997.41;5047158;28;20044;-88
2022/04/06 10:24:10;;;;;;;9.48;3.50;;;;;;;9.25;78.05;100008.16;5050885;28;20373;-89
2022/04/06 10:27:04;;;;;;;7.55;3.47;;;;;;;9.27;77.12;99995.63;5049683;28;20539;-86
2022/04/06 10:29:30;;;;;;;;;;;;;;;9.34;76.99;100002.31;5023729;28;20517;-92
2022/04/06 10:31:55;;;;;;;7.10;3.20;;;;;;;9.21;76.80;99999.53;5037122;28;20180;-88
2022/04/06 10:34:28;;;;;;;10.27;3.72;;;;;;;9.20;77.19;100013.75;5048854;28;20032;-89
2022/04/06 10:37:11;;;;;;;8.63;3.17;;;;;;;9.11;77.65;99990.38;5049737;28;20048;-91
2022/04/06 10:40:03;;;;;;;8.82;3.22;;;;;;;9.17;78.31;100004.16;5052492;28;20104;-90
2022/04/06 10:42:33;;;;;;;5.85;3.25;;;;;;;9.26;77.21;100009.88;5033224;28;20060;-90
2022/04/06 10:44:59;;;;;;;7.93;2.92;;;;;;;9.26;77.48;100001.91;5044669;28;20313;-86
2022/04/06 10:47:25;;;;;;;8.63;3.03;;;;;;;9.20;77.27;99995.16;5038966;28;20027;-86
2022/04/06 10:50:15;;;;;;;7.38;3.20;;;;;;;9.25;77.59;100011.69;5048017;28;20046;-87
2022/04/06 10:52:43;;;;;;;7.43;3.53;;;;;;;9.22;77.76;100004.72;5048418;28;20044;-88
2022/04/06 10:55:09;;;;;;;6.90;3.30;;;;;;;9.08;81.59;100001.19;5048318;28;20030;-88
2022/04/06 10:58:00;;;;;;;6.32;3.42;;;;;;;8.81;82.36;99999.16;5048003;28;20044;-88
2022/04/06 11:00:26;;;;;;;7.70;3.50;;;;;;;8.54;85.91;99996.28;5047509;28;20509;-88
2022/04/06 11:02:52;;;;;;;7.05;3.30;;;;;;;8.45;86.59;99994.16;5045063;28;20021;-88
2022/04/06 11:05:44;;;;;;;5.05;3.47;;;;;;;8.36;86.41;100000.78;5049606;28;20028;-88
2022/04/06 11:11:36;;;;;;;8.38;3.60;;;;;;;8.21;87.32;99993.66;5046554;28;20075;-88
2022/04/06 11:14:02;;;;;;;12.27;4.35;;;;;;;8.10;88.38;99988.94;5045435;28;20037;-88
2022/04/06 11:16:54;;;;;;;10.27;4.22;;;;;;;8.08;87.63;99982.03;5042652;28;20434;-89
2022/04/06 11:19:19;;;;;;;6.00;3.50;;;;;;;8.15;87.50;99975.41;5039437;28;20510;-88
2022/04/06 11:21:53;;;;;;;5.30;3.55;;;;;;;8.35;86.53;99974.34;5040221;28;20052;-89
2022/04/06 11:24:20;;;;;;;;;;;;;;;8.46;86.07;99975.47;5048627;28;20325;-88
2022/04/06 11:26:45;;;;;;;9.07;4.35;;;;;;;8.67;85.19;99976.06;5050155;28;19930;-89
2022/04/06 11:29:12;;;;;;;10.05;3.85;;;;;;;8.84;84.29;99969.81;5050388;28;20085;-87
2022/04/06 11:31:56;;;;;;;7.50;3.90;;;;;;;8.93;83.79;99974.56;5047950;28;20041;-89
2022/04/06 11:34:34;;;;;;;;;;;;;;;9.07;82.62;99960.53;5049470;28;20033;-88
2022/04/06 11:37:01;;;;;;;8.23;3.25;;;;;;;9.15;81.67;99965.34;5050039;28;19928;-89
2022/04/06 11:39:32;;;;;;;5.40;3.65;;;;;;;9.19;80.66;99940.34;5042075;28;20059;-88